X  Close Metar Aviation Weather Data        LPMA Madeira Airport
Temperature
77°F Temperature
64°F Dewpoint
65% Humidity



Wind
15 MPH
24 KM/H
7 M/S
13 KTS



350°
N
Current Conditions

Mostly Sunny Mostly Sunny
Pressure 1019 (hPa) - 30.08 (inHg)
Visibility 6 (mile) - 10 (km)
Airport
Airport-code LPMA

Location: Madeira Airport
Distance: 51 (mi)

Metar:
METAR LPMA 200630Z 35013KT 9999 FEW015 25/18 Q1019

Time: 20-07-2024 07:30 WEST